SCCI/PUQ METAR and TAF weather

Enter ICAO airport designator
Station Type Date Time Source
SCCI METAR 2019/12/08 03:00 UTC NOAA

SCCI 080300Z 25011KT CAVOK 08/04 Q1006 NOSIG


Station Type Date Time Source
SCCI Decoded METAR 2019/12/08 03:00 UTC NOAA

Punta Arenas, Chile (SCCI) 53-00S 070-51W 33M
Dec 07, 2019 - 10:00 PM EST / 2019.12.08 0300 UTC
Wind: from the WSW (250 degrees) at 13 MPH (11 KT):0
Visibility: greater than 7 mile(s):0
Temperature: 46 F (8 C)
Dew Point: 39 F (4 C)
Relative Humidity: 75%
Pressure (altimeter): 29.71 in. Hg (1006 hPa)
ob: SCCI 080300Z 25011KT CAVOK 08/04 Q1006 NOSIG
cycle: 3

Station Type Date Time Source
SCCI TAF 2019/12/07 18:03 UTC NOAA

TAF SCCI 071637Z 0718/0818 26015KT 9000 -SHRA SCT030 BKN042 TN07/0809Z TX11/0718Z
TEMPO 0718/0800 26020G30KT 8000 -SHRA SCT024 BKN032
BECMG 0800/0802 25012KT 9999 NSW SCT036
BECMG 0809/0811 27008KT 9000 -SHRA SCT024 BKN036
BECMG 0815/0817 31015KT

Example: see airport list